Stations météo

réclame
Mon MeteoGroup
Tarfala, Suède (2029): Température de l'air & dewpoint: 23.01.2020 01:00:00 - 29.01.2020 01:00:00 (CET)Tarfala, Suède (2029): Vitesse du vent & gusts: 23.01.2020 01:00:00 - 29.01.2020 01:00:00 (CET)Tarfala, Suède (2029): Direction du vent: 23.01.2020 01:00:00 - 29.01.2020 01:00:00 (CET)
Date & Time tt [°C] td [°C] ff [km/h] ff [knt] fx [km/h] fx [knt] dd
29.01.2020 01:00:00 -16,3 -18,4 6 3 8 4 NW
29.01.2020 00:00:00 -17,4 -19,3 3 2 10 5 ESE
28.01.2020 23:00:00 -16,5 -18,6 3 2 5 3 SSE
28.01.2020 22:00:00 -17,6 -19,5 3 2 8 4 SSE
28.01.2020 21:00:00 -16,8 -18,6 5 3 10 5 SE
28.01.2020 20:00:00 -16,5 -18,6 3 2 7 4 SSW
28.01.2020 19:00:00 -17,5 -19,4 3 1 7 4 S
28.01.2020 18:00:00 -16,7 -18,6 0 0 7 4 N
28.01.2020 17:00:00 -16,5 -18,4 0 0 8 4 N
28.01.2020 16:00:00 -16,1 -18,0 0 0 3 2 N
28.01.2020 15:00:00 -16,1 -18,0 0 0 4 2 N
28.01.2020 14:00:00 -15,9 -18,0 0 0 4 2 N
28.01.2020 13:00:00 -15,9 -17,8 3 1 6 4 SSE
28.01.2020 12:00:00 -15,5 -17,6 0 0 4 2 N
28.01.2020 11:00:00 -15,7 -17,6 3 2 5 3 SSE
28.01.2020 10:00:00 -15,6 -17,7 4 2 8 5 ENE
28.01.2020 09:00:00 -15,1 -17,1 4 2 15 8 S
28.01.2020 08:00:00 -13,0 -15,0 8 5 14 8 ESE
28.01.2020 07:00:00 -14,0 -16,0 4 2 12 7 NNW
28.01.2020 06:00:00 -14,7 -16,7 4 2 12 6 NNW
28.01.2020 05:00:00 -15,3 -17,2 5 3 9 5 N
28.01.2020 04:00:00 -15,4 -17,5 8 5 14 8 SE
28.01.2020 03:00:00 -14,5 -16,6 9 5 16 9 S
28.01.2020 02:00:00 -14,7 -16,7 11 6 18 10 SSE
28.01.2020 01:00:00 -14,7 -16,5 8 4 23 12 S
28.01.2020 00:00:00 -15,2 -17,0 5 3 10 6 NNE
27.01.2020 23:00:00 -16,5 -18,4 0 0 9 5 N
27.01.2020 22:00:00 -16,3 -18,2 6 3 27 14 S
27.01.2020 21:00:00 -15,9 -17,8 10 5 26 14 SSW
27.01.2020 20:00:00 -16,6 -18,5 4 2 15 8 NNW
27.01.2020 19:00:00 -16,1 -18,0 8 5 24 13 SSE
27.01.2020 18:00:00 -16,5 -18,4 4 2 25 14 ESE
27.01.2020 17:00:00 -16,6 -18,5 18 10 33 18 SSE
27.01.2020 16:00:00 -16,5 -18,4 18 10 34 18 SSE
27.01.2020 15:00:00 -16,5 -18,4 18 10 33 18 SSE
27.01.2020 14:00:00 -16,4 -18,3 19 10 33 18 SSE
27.01.2020 13:00:00 -16,3 -18,3 17 9 32 17 SSE
27.01.2020 12:00:00 -16,5 -18,4 18 10 33 18 SSE
27.01.2020 11:00:00 -16,4 -18,3 22 12 36 20 SE
27.01.2020 10:00:00 -16,5 -18,4 24 13 35 19 SE
27.01.2020 09:00:00 -16,5 -18,4 24 13 32 18 SSE
27.01.2020 08:00:00 -16,3 -18,2 20 11 26 14 SSE
27.01.2020 07:00:00 -16,5 -18,4 8 4 24 13 SSE
27.01.2020 06:00:00 -16,1 -18,0 11 6 36 19 SSE
27.01.2020 05:00:00 -16,0 -18,1 10 6 19 10 SSE
27.01.2020 04:00:00 -15,9 -18,0 5 3 13 7 S
27.01.2020 03:00:00 -16,1 -18,2 6 3 13 7 S
27.01.2020 02:00:00 -16,1 -18,5 4 2 13 7 SSE
27.01.2020 01:00:00 -16,6 -19,4 6 3 20 11 SSW
27.01.2020 00:00:00 -16,5 -20,0 4 2 15 8 S
26.01.2020 23:00:00 -16,2 -19,9 2 1 15 8 N
26.01.2020 22:00:00 -16,2 -20,9 8 4 16 9 SSW
26.01.2020 21:00:00 -16,3 -20,7 4 2 10 6 NW
26.01.2020 20:00:00 -16,4 -18,8 2 1 11 6 SSE
26.01.2020 19:00:00 -16,0 -17,9 3 1 15 8 S
26.01.2020 18:00:00 -15,8 -18,0 5 3 17 9 S
26.01.2020 17:00:00 -17,6 -20,1 7 4 13 7 NW
26.01.2020 16:00:00 -18,6 -21,0 8 5 14 7 NNW
26.01.2020 15:00:00 -19,0 -20,9 8 4 11 6 NNW
26.01.2020 14:00:00 -19,0 -21,7 5 3 12 6 N
26.01.2020 13:00:00 -18,8 -21,5 8 4 12 7 NNW
26.01.2020 12:00:00 -18,7 -21,0 5 3 14 7 NNW
26.01.2020 11:00:00 -18,9 -21,6 8 5 12 7 NNW
26.01.2020 10:00:00 -20,4 -24,4 6 3 19 10 NNW
26.01.2020 09:00:00 -18,6 -22,4 11 6 21 11 NE
26.01.2020 08:00:00 -19,1 -23,0 9 5 14 8 ESE
26.01.2020 07:00:00 -18,4 -23,4 4 2 23 13 N
26.01.2020 06:00:00 -19,5 -23,6 8 4 21 11 N
26.01.2020 05:00:00 -18,5 -21,1 4 2 17 9 NW
26.01.2020 04:00:00 -14,8 -16,6 4 2 18 10 ENE
26.01.2020 03:00:00 -15,4 -17,2 6 4 10 5 NNW
26.01.2020 02:00:00 -14,9 -16,7 3 2 16 9 SE
26.01.2020 01:00:00 -14,2 -15,9 15 8 24 13 SSE
26.01.2020 00:00:00 -12,8 -14,4 12 7 18 10 SE
25.01.2020 23:00:00 -12,1 -13,5 9 5 14 8 SE
25.01.2020 22:00:00 -11,6 -13,0 9 5 13 7 SE
25.01.2020 21:00:00 -11,5 -12,9 7 4 9 5 NW
25.01.2020 20:00:00 -11,2 -12,5 3 1 14 7 NW
25.01.2020 19:00:00 -11,0 -12,3 8 4 27 15 SSE
25.01.2020 18:00:00 -10,6 -11,8 25 13 32 18 SE
25.01.2020 17:00:00 -6,8 -10,2 21 11 - - NNW
25.01.2020 16:00:00 -6,7 -11,1 21 11 43 23 NNW
25.01.2020 15:00:00 -6,7 -10,6 17 9 47 26 NW
25.01.2020 14:00:00 -6,8 -10,8 27 14 56 31 NW
25.01.2020 13:00:00 -6,9 -10,1 31 17 68 37 NNW
25.01.2020 12:00:00 -7,1 -10,1 29 16 59 32 NW
25.01.2020 11:00:00 -7,2 -10,7 32 18 69 37 NW
25.01.2020 10:00:00 -7,5 -11,2 39 21 58 32 NW
25.01.2020 09:00:00 -8,1 -12,1 34 19 62 33 NW
25.01.2020 08:00:00 -8,1 -11,9 35 19 64 35 WNW
25.01.2020 07:00:00 -8,1 -11,7 41 22 76 41 NW
25.01.2020 06:00:00 -7,9 -11,1 40 21 71 39 NW
25.01.2020 05:00:00 -8,5 -12,3 37 20 61 33 NW
25.01.2020 04:00:00 -8,0 -11,6 36 19 66 36 NW
25.01.2020 03:00:00 -8,3 -11,4 39 21 61 33 NW
25.01.2020 02:00:00 -8,4 -11,9 38 21 56 31 NW
25.01.2020 01:00:00 -8,5 -11,8 43 23 59 32 NW
25.01.2020 00:00:00 -8,7 -13,7 28 15 44 24 NW
24.01.2020 23:00:00 -9,0 -14,8 24 13 38 20 NW
24.01.2020 22:00:00 -9,7 -16,8 12 7 21 11 NNW
24.01.2020 21:00:00 -10,7 -16,2 9 5 23 12 NNW
24.01.2020 20:00:00 -9,4 -13,7 16 8 24 13 N
24.01.2020 19:00:00 -9,7 -14,5 8 4 23 13 SW
24.01.2020 18:00:00 -9,1 -13,0 0 0 19 10 N
24.01.2020 17:00:00 -8,4 -13,8 15 8 26 14 NW
24.01.2020 16:00:00 -8,6 -12,9 19 11 27 14 N
24.01.2020 15:00:00 -8,9 -13,0 18 10 29 15 W
24.01.2020 14:00:00 - - - - 32 17 -
24.01.2020 13:00:00 - - - - 39 21 -
24.01.2020 12:00:00 - - - - - - -
24.01.2020 11:00:00 - - - - - - -
24.01.2020 10:00:00 - - - - - - -
24.01.2020 09:00:00 - - - - - - -
24.01.2020 08:00:00 - - - - - - -
24.01.2020 07:00:00 - - - - - - -
24.01.2020 06:00:00 - - - - - - -
24.01.2020 05:00:00 - - - - - - -
24.01.2020 04:00:00 - - - - - - -
24.01.2020 03:00:00 - - - - - - -
24.01.2020 02:00:00 - - - - - - -
24.01.2020 01:00:00 - - - - - - -
24.01.2020 00:00:00 - - - - - - -
23.01.2020 23:00:00 - - - - - - -
23.01.2020 22:00:00 - - - - - - -
23.01.2020 21:00:00 - - - - - - -
23.01.2020 20:00:00 -3,5 -6,4 19 10 64 35 NE
23.01.2020 19:00:00 -3,2 -4,9 36 19 82 44 NNW
23.01.2020 18:00:00 -3,3 -6,8 31 17 - - N
23.01.2020 17:00:00 -3,1 -5,1 32 17 - - N
23.01.2020 16:00:00 -2,3 -5,8 20 11 63 34 S
23.01.2020 15:00:00 -1,6 -4,8 23 12 67 36 N
23.01.2020 14:00:00 -1,2 -4,7 21 11 - - N
23.01.2020 13:00:00 -0,8 -4,5 21 11 71 39 NNE
23.01.2020 12:00:00 -1,6 -5,3 23 12 63 34 N
23.01.2020 11:00:00 -8,3 -9,5 5 3 9 5 NNW
23.01.2020 10:00:00 -8,5 -9,7 0 0 8 4 N
23.01.2020 09:00:00 -8,4 -9,6 3 1 8 5 WNW
23.01.2020 08:00:00 -8,6 -9,8 7 4 9 5 WNW
23.01.2020 07:00:00 -8,7 -9,9 3 2 9 5 W
23.01.2020 06:00:00 -8,5 -9,4 3 2 17 9 NNE
23.01.2020 05:00:00 -7,8 -10,5 8 4 19 10 SSE
23.01.2020 04:00:00 -7,4 -10,9 11 6 37 20 SE
23.01.2020 03:00:00 -6,6 -12,3 21 12 47 25 W
23.01.2020 02:00:00 -7,5 -11,2 20 11 66 35 NW
23.01.2020 01:00:00 -6,9 -10,9 24 13 63 34 NNW

tt = Température de l'air
td = dewpoint
ff = Vitesse du vent
fx = gusts
dd = Direction du vent

stations d'obs. à proximité